Time;durP1;ratioP1;P1;durP2;ratioP2;P2;SDS_P1;SDS_P2;PMS_P1;PMS_P2;Temp;Humidity;BMP_temperature;BMP_pressure;BME280_temperature;BME280_humidity;BME280_pressure;Samples;Min_cycle;Max_cycle;Signal;HPM_P1;HPM_P2
2022/08/06 00:00:31;;;;;;;0.10;0.10;;;;;;;10.48;100.00;102515.22;10523946;28;20135;-74
2022/08/06 00:05:33;;;;;;;6.03;0.60;;;;;;;10.36;100.00;102529.13;10523450;28;20044;-74
2022/08/06 00:10:37;;;;;;;0.10;0.10;;;;;;;10.36;100.00;102535.19;10541743;28;20047;-74
2022/08/06 00:15:43;;;;;;;0.43;0.20;;;;;;;10.71;100.00;102530.13;10507511;28;20059;-74
2022/08/06 00:21:04;;;;;;;0.10;0.10;;;;;;;10.32;100.00;102535.81;10536264;28;20059;-74
2022/08/06 00:26:26;;;;;;;0.00;0.00;;;;;;;10.46;100.00;102547.75;10522965;28;20113;-74
2022/08/06 00:31:29;;;;;;;0.00;0.00;;;;;;;10.46;100.00;102557.19;10522374;28;20055;-74
2022/08/06 00:36:33;;;;;;;1.27;0.43;;;;;;;10.40;100.00;102557.75;10528841;28;20058;-74
2022/08/06 00:41:37;;;;;;;0.05;0.05;;;;;;;10.32;100.00;102569.28;10582534;28;20040;-74
2022/08/06 00:46:43;;;;;;;0.00;0.00;;;;;;;10.20;100.00;102560.91;10583021;28;20096;-74
2022/08/06 00:51:45;;;;;;;0.10;0.10;;;;;;;10.13;100.00;102572.56;10582948;28;20062;-74
2022/08/06 00:56:52;;;;;;;0.17;0.17;;;;;;;10.11;100.00;102575.06;10583651;28;20075;-74
2022/08/06 01:01:54;;;;;;;0.08;0.03;;;;;;;9.86;100.00;102577.09;10583248;28;20046;-74
2022/08/06 01:06:56;;;;;;;0.05;0.05;;;;;;;10.07;100.00;102585.09;10564264;28;20130;-74
2022/08/06 01:11:59;;;;;;;0.32;0.30;;;;;;;10.02;100.00;102586.56;10571126;28;20131;-74
2022/08/06 01:17:11;;;;;;;0.32;0.30;;;;;;;10.13;100.00;102588.91;10573433;28;20052;-74
2022/08/06 01:22:57;;;;;;;0.10;0.10;;;;;;;9.96;100.00;102599.97;10593046;28;20039;-74
2022/08/06 01:28:09;;;;;;;2.53;0.45;;;;;;;9.95;100.00;102611.97;10542211;28;20402;-73
2022/08/06 01:33:20;;;;;;;0.00;0.00;;;;;;;9.83;100.00;102608.69;10535364;28;20080;-74
2022/08/06 01:38:37;;;;;;;0.00;0.00;;;;;;;9.89;100.00;102609.06;10552064;28;20139;-75
2022/08/06 01:43:51;;;;;;;0.73;0.20;;;;;;;9.83;100.00;102604.44;10550058;28;20040;-75
2022/08/06 01:49:17;;;;;;;0.10;0.10;;;;;;;9.75;100.00;102615.13;10534245;28;20039;-74
2022/08/06 01:54:34;;;;;;;0.38;0.20;;;;;;;9.68;100.00;102614.75;10535427;28;20040;-74
2022/08/06 01:59:43;;;;;;;0.10;0.10;;;;;;;9.75;100.00;102618.56;10511581;28;20045;-75
2022/08/06 02:04:52;;;;;;;0.65;0.10;;;;;;;9.69;100.00;102623.38;10494302;28;20040;-74
2022/08/06 02:09:56;;;;;;;0.00;0.00;;;;;;;9.61;100.00;102616.88;10515481;28;20055;-74
2022/08/06 02:15:02;;;;;;;1.35;0.35;;;;;;;9.41;100.00;102619.22;10551903;28;20050;-74
2022/08/06 02:20:06;;;;;;;0.20;0.20;;;;;;;9.42;100.00;102625.22;10533138;28;20056;-74
2022/08/06 02:25:30;;;;;;;0.80;0.25;;;;;;;9.46;100.00;102616.88;10536646;28;20101;-74
2022/08/06 02:30:40;;;;;;;0.00;0.00;;;;;;;9.29;100.00;102619.38;10549791;28;20066;-74
2022/08/06 02:35:47;;;;;;;0.00;0.00;;;;;;;9.34;100.00;102628.25;10531770;28;20091;-75
2022/08/06 02:41:11;;;;;;;0.05;0.05;;;;;;;9.29;100.00;102634.81;10533192;28;20111;-74
2022/08/06 02:46:23;;;;;;;0.03;0.03;;;;;;;9.17;100.00;102640.09;10491872;28;20049;-74
2022/08/06 02:51:38;;;;;;;0.00;0.00;;;;;;;9.20;100.00;102640.28;10490557;28;20045;-74
2022/08/06 02:57:03;;;;;;;2.15;0.20;;;;;;;9.11;100.00;102644.88;10503293;28;20044;-75
2022/08/06 03:02:11;;;;;;;0.00;0.00;;;;;;;9.03;100.00;102651.25;10519835;28;20052;-75
2022/08/06 03:07:17;;;;;;;0.10;0.10;;;;;;;8.88;100.00;102672.66;10510024;28;20131;-74
2022/08/06 03:12:30;;;;;;;0.25;0.10;;;;;;;8.86;100.00;102705.09;10546745;28;20070;-75
2022/08/06 03:17:33;;;;;;;0.75;0.20;;;;;;;8.80;100.00;102714.09;10547548;28;20055;-75
2022/08/06 03:22:38;;;;;;;0.13;0.13;;;;;;;8.82;100.00;102718.56;10529148;28;20054;-74
2022/08/06 03:27:46;;;;;;;0.43;0.38;;;;;;;8.42;100.00;102701.47;10512744;28;20062;-74
2022/08/06 03:32:49;;;;;;;0.10;0.03;;;;;;;8.51;100.00;102688.38;10546620;28;20122;-74
2022/08/06 03:37:56;;;;;;;0.20;0.20;;;;;;;8.46;100.00;102711.94;10529430;28;20048;-75
2022/08/06 03:43:04;;;;;;;0.20;0.20;;;;;;;8.74;100.00;102724.91;10530892;28;20083;-74
2022/08/06 03:48:15;;;;;;;0.10;0.10;;;;;;;8.51;100.00;102711.47;10526560;28;20044;-74
2022/08/06 03:53:40;;;;;;;0.10;0.10;;;;;;;8.67;100.00;102707.31;10546930;28;20093;-74
2022/08/06 03:58:49;;;;;;;0.32;0.30;;;;;;;8.87;100.00;102742.84;10529547;28;20047;-73
2022/08/06 04:03:53;;;;;;;0.22;0.10;;;;;;;9.04;100.00;102745.59;10525494;28;20044;-74
2022/08/06 04:08:57;;;;;;;0.10;0.10;;;;;;;9.19;100.00;102745.63;10543833;28;20035;-74
2022/08/06 04:13:59;;;;;;;0.00;0.00;;;;;;;9.11;100.00;102737.47;10524785;28;20108;-74
2022/08/06 04:19:11;;;;;;;0.45;0.30;;;;;;;9.18;100.00;102749.91;10542752;28;20097;-75
2022/08/06 04:24:16;;;;;;;0.10;0.10;;;;;;;9.30;100.00;102764.28;10542983;28;20093;-75
2022/08/06 04:29:20;;;;;;;0.10;0.10;;;;;;;8.96;100.00;102752.81;10523560;28;20048;-73
2022/08/06 04:34:26;;;;;;;0.15;0.08;;;;;;;9.11;100.00;102755.47;10541237;28;20070;-73
2022/08/06 04:39:30;;;;;;;0.35;0.32;;;;;;;9.27;100.00;102753.84;10542605;28;20047;-74
2022/08/06 04:44:39;;;;;;;0.30;0.23;;;;;;;9.43;100.00;102755.63;10540817;28;20399;-73
2022/08/06 04:49:48;;;;;;;0.10;0.10;;;;;;;9.41;100.00;102739.22;10541605;28;20048;-74
2022/08/06 04:55:06;;;;;;;0.10;0.10;;;;;;;9.64;100.00;102762.06;10540645;28;20071;-74
2022/08/06 05:00:28;;;;;;;0.10;0.10;;;;;;;9.69;100.00;102775.22;10523089;28;20460;-74
2022/08/06 05:05:58;;;;;;;0.00;0.00;;;;;;;9.71;100.00;102783.00;10509568;28;20040;-75
2022/08/06 05:11:05;;;;;;;0.20;0.20;;;;;;;9.72;100.00;102815.69;10546503;28;20037;-74
2022/08/06 05:16:09;;;;;;;0.15;0.15;;;;;;;10.18;100.00;102832.97;10527024;28;20048;-74
2022/08/06 05:21:17;;;;;;;0.10;0.05;;;;;;;10.62;100.00;102839.81;10525619;28;20487;-74
2022/08/06 05:26:23;;;;;;;0.20;0.20;;;;;;;10.93;100.00;102838.97;10524324;28;20048;-74
2022/08/06 05:31:35;;;;;;;0.22;0.15;;;;;;;11.12;100.00;102830.56;10522964;28;20050;-73
2022/08/06 05:36:41;;;;;;;0.00;0.00;;;;;;;11.45;100.00;102833.19;10522627;28;20048;-74
2022/08/06 05:41:44;;;;;;;0.90;0.47;;;;;;;11.61;100.00;102841.75;10505466;28;20118;-74
2022/08/06 05:46:54;;;;;;;0.47;0.40;;;;;;;11.95;100.00;102836.63;10521952;28;20055;-74
2022/08/06 05:52:12;;;;;;;0.10;0.10;;;;;;;12.04;100.00;102839.72;10541266;28;20047;-74
2022/08/06 05:57:37;;;;;;;0.50;0.40;;;;;;;12.34;100.00;102829.16;10504154;28;20480;-74
2022/08/06 06:02:45;;;;;;;0.15;0.15;;;;;;;12.56;100.00;102832.78;10527417;28;20032;-74
2022/08/06 06:07:49;;;;;;;0.30;0.25;;;;;;;12.78;100.00;102851.91;10532579;28;20115;-74
2022/08/06 06:13:11;;;;;;;0.17;0.17;;;;;;;13.11;100.00;102846.56;10534889;28;20082;-75
2022/08/06 06:18:47;;;;;;;0.30;0.15;;;;;;;13.50;100.00;102828.56;10551837;28;20386;-74
2022/08/06 06:24:08;;;;;;;0.15;0.15;;;;;;;13.79;100.00;102824.63;10555027;28;20040;-75
2022/08/06 06:29:23;;;;;;;1.17;0.17;;;;;;;13.96;100.00;102814.97;10522648;28;20048;-74
2022/08/06 06:34:48;;;;;;;0.10;0.10;;;;;;;14.22;100.00;102804.84;10538115;28;20509;-74
2022/08/06 06:40:01;;;;;;;1.40;0.40;;;;;;;14.57;100.00;102797.59;10520549;28;20118;-74
2022/08/06 06:45:13;;;;;;;0.80;0.20;;;;;;;15.04;100.00;102794.22;10535146;28;20582;-74
2022/08/06 06:50:42;;;;;;;0.30;0.30;;;;;;;15.28;100.00;102772.59;10522383;28;20071;-75
2022/08/06 06:55:47;;;;;;;0.10;0.10;;;;;;;15.60;100.00;102759.88;10534400;28;20447;-74
2022/08/06 07:01:03;;;;;;;0.00;0.00;;;;;;;15.43;100.00;102757.56;10537453;28;20044;-75
2022/08/06 07:06:27;;;;;;;0.10;0.10;;;;;;;16.25;100.00;102756.88;10547372;28;20051;-74
2022/08/06 07:11:45;;;;;;;0.00;0.00;;;;;;;16.94;100.00;102745.13;10489116;28;20055;-75
2022/08/06 07:17:05;;;;;;;;;;;;;;;17.76;100.00;102734.28;10523063;28;20040;-75
2022/08/06 07:22:27;;;;;;;0.30;0.25;;;;;;;18.13;100.00;102739.56;10554273;28;19920;-75
2022/08/06 07:27:37;;;;;;;0.10;0.10;;;;;;;18.22;100.00;102739.75;10558695;28;20044;-75
2022/08/06 07:32:46;;;;;;;0.00;0.00;;;;;;;18.35;100.00;102746.13;10562652;28;20047;-76
2022/08/06 07:38:02;;;;;;;4.38;1.75;;;;;;;18.69;100.00;102741.69;10568085;28;20070;-76
2022/08/06 07:43:18;;;;;;;0.30;0.13;;;;;;;18.90;100.00;102746.47;10566095;28;20040;-76
2022/08/06 07:48:31;;;;;;;0.10;0.00;;;;;;;19.11;100.00;102745.16;10555465;28;20047;-76
2022/08/06 07:53:38;;;;;;;0.08;0.00;;;;;;;19.03;100.00;102748.50;10570567;28;20095;-76
2022/08/06 07:59:00;;;;;;;0.00;0.00;;;;;;;19.42;100.00;102748.38;10560435;28;20051;-76
2022/08/06 08:09:47;;;;;;;0.00;0.00;;;;;;;19.16;100.00;102748.75;10534422;28;20048;-76
2022/08/06 08:15:05;;;;;;;0.00;0.00;;;;;;;20.40;100.00;102745.63;10550984;28;20044;-75
2022/08/06 08:20:29;;;;;;;0.20;0.07;;;;;;;20.68;100.00;102748.63;10478657;28;20049;-76
2022/08/06 08:25:35;;;;;;;0.00;0.00;;;;;;;20.53;100.00;102747.56;10523721;28;20048;-76
2022/08/06 08:30:45;;;;;;;0.00;0.00;;;;;;;21.02;100.00;102736.00;10551199;28;20052;-75
2022/08/06 08:35:50;;;;;;;0.20;0.00;;;;;;;21.20;100.00;102743.16;10515361;28;20480;-75
2022/08/06 08:41:25;;;;;;;0.00;0.00;;;;;;;21.08;89.57;102738.66;10512331;28;20124;-75
2022/08/06 08:46:48;;;;;;;1.20;0.43;;;;;;;20.88;79.65;102754.16;10577866;28;20449;-75
2022/08/06 08:52:00;;;;;;;0.00;0.00;;;;;;;19.91;95.85;102759.75;10554737;28;20035;-76
2022/08/06 08:57:03;;;;;;;0.00;0.00;;;;;;;19.29;94.71;102766.44;10478983;28;20060;-74
2022/08/06 09:02:26;;;;;;;0.00;0.00;;;;;;;19.31;94.90;102758.63;10511262;28;20085;-76
2022/08/06 09:07:29;;;;;;;0.15;0.00;;;;;;;18.95;98.96;102765.75;10549318;28;20126;-75
2022/08/06 09:12:37;;;;;;;0.17;0.07;;;;;;;19.76;100.00;102759.44;10546056;28;20044;-75
2022/08/06 09:18:14;;;;;;;0.00;0.00;;;;;;;21.29;82.11;102765.97;10534846;28;20044;-75
2022/08/06 09:23:28;;;;;;;0.55;0.10;;;;;;;21.78;69.80;102763.84;10518208;28;20398;-75
2022/08/06 09:28:50;;;;;;;0.10;0.05;;;;;;;21.76;74.30;102767.34;10494341;28;20076;-75
2022/08/06 09:34:10;;;;;;;0.00;0.00;;;;;;;22.05;78.84;102764.06;10514256;28;20033;-75
2022/08/06 09:39:37;;;;;;;0.00;0.00;;;;;;;21.44;71.23;102767.88;10537132;28;20044;-75
2022/08/06 09:45:07;;;;;;;0.00;0.00;;;;;;;21.58;73.25;102768.03;10556359;28;20062;-74
2022/08/06 09:50:41;;;;;;;0.03;0.00;;;;;;;22.58;74.60;102765.31;10527768;28;20048;-75
2022/08/06 09:55:45;;;;;;;0.00;0.00;;;;;;;21.63;79.93;102756.75;10495720;28;20052;-75
2022/08/06 10:00:47;;;;;;;0.00;0.00;;;;;;;21.03;77.13;102767.44;10550390;28;20127;-74
2022/08/06 10:06:10;;;;;;;0.00;0.00;;;;;;;22.38;91.44;102752.91;10559427;28;20093;-75
2022/08/06 10:11:32;;;;;;;0.10;0.10;;;;;;;23.00;62.59;102769.00;10538610;28;20040;-75
2022/08/06 10:16:42;;;;;;;0.00;0.00;;;;;;;22.95;64.56;102766.34;10554334;28;20494;-75
2022/08/06 10:21:44;;;;;;;0.00;0.00;;;;;;;22.41;65.35;102771.34;10548396;28;20039;-77
2022/08/06 10:26:49;;;;;;;0.10;0.10;;;;;;;20.41;83.37;102774.44;10527971;28;20056;-76
2022/08/06 10:31:53;;;;;;;0.00;0.00;;;;;;;19.96;85.58;102765.00;10548728;28;20047;-76
2022/08/06 10:36:59;;;;;;;0.00;0.00;;;;;;;19.86;92.79;102763.97;10548191;28;20084;-76
2022/08/06 10:42:02;;;;;;;0.32;0.10;;;;;;;19.81;92.01;102760.38;10527166;28;20093;-75
2022/08/06 10:47:19;;;;;;;0.00;0.00;;;;;;;20.06;86.62;102760.84;10545922;28;20039;-76
2022/08/06 10:52:42;;;;;;;0.00;0.00;;;;;;;21.98;82.46;102753.53;10569674;28;20104;-75
2022/08/06 10:57:47;;;;;;;0.00;0.00;;;;;;;22.16;73.20;102747.53;10560771;28;20577;-75
2022/08/06 11:03:03;;;;;;;0.00;0.00;;;;;;;22.64;71.47;102744.34;10578585;28;20061;-76
2022/08/06 11:09:13;;;;;;;0.00;0.00;;;;;;;22.28;64.20;102740.63;10562058;28;20372;-75
2022/08/06 11:14:16;;;;;;;0.30;0.00;;;;;;;22.47;60.93;102745.13;10465359;28;20048;-75
2022/08/06 11:19:37;;;;;;;0.00;0.00;;;;;;;23.22;65.31;102730.56;10549824;28;20044;-75
2022/08/06 11:24:57;;;;;;;0.20;0.00;;;;;;;23.06;53.45;102732.22;10540305;28;20043;-74
2022/08/06 11:30:09;;;;;;;0.10;0.10;;;;;;;23.27;54.55;102727.94;10533080;28;20044;-75
2022/08/06 11:35:31;;;;;;;0.00;0.00;;;;;;;22.77;52.86;102735.63;10541816;28;20103;-75
2022/08/06 11:41:00;;;;;;;0.00;0.00;;;;;;;23.73;55.22;102720.06;10528579;28;20515;-75
2022/08/06 11:46:35;;;;;;;0.00;0.00;;;;;;;22.01;52.39;102729.03;10541819;28;20044;-75
2022/08/06 11:51:58;;;;;;;0.00;0.00;;;;;;;22.50;58.18;102732.03;10544560;28;20043;-76
2022/08/06 11:57:07;;;;;;;0.00;0.00;;;;;;;21.82;60.53;102730.66;10548783;28;20440;-76
2022/08/06 12:02:36;;;;;;;;;;;;;;;21.93;73.18;102720.28;10544935;28;20122;-75
2022/08/06 12:14:41;;;;;;;0.00;0.00;;;;;;;20.75;75.39;102738.28;10545594;28;20105;-75
2022/08/06 12:19:54;;;;;;;0.00;0.00;;;;;;;20.63;79.33;102726.75;10542722;28;20057;-75
2022/08/06 12:25:06;;;;;;;0.00;0.00;;;;;;;20.67;74.56;102723.28;10544653;28;20093;-75
2022/08/06 12:30:13;;;;;;;0.00;0.00;;;;;;;20.51;71.99;102727.44;10525990;28;20044;-75
2022/08/06 12:35:36;;;;;;;0.00;0.00;;;;;;;20.95;77.21;102714.06;10542604;28;20074;-75
2022/08/06 12:40:39;;;;;;;0.00;0.00;;;;;;;21.08;73.90;102707.22;10523282;28;20461;-76
2022/08/06 12:45:42;;;;;;;0.00;0.00;;;;;;;21.26;77.67;102713.53;10541036;28;20048;-75
2022/08/06 12:51:09;;;;;;;0.95;0.10;;;;;;;21.55;77.66;102709.44;10525205;28;20051;-75
2022/08/06 12:56:17;;;;;;;0.00;0.00;;;;;;;21.34;73.37;102710.13;10522043;28;20554;-75
2022/08/06 13:01:33;;;;;;;0.00;0.00;;;;;;;21.49;63.03;102714.59;10540088;28;20384;-75
2022/08/06 13:06:55;;;;;;;0.08;0.08;;;;;;;21.99;68.81;102710.66;10516459;28;20068;-75
2022/08/06 13:11:57;;;;;;;0.00;0.00;;;;;;;21.94;73.24;102709.78;10535392;28;20040;-76
2022/08/06 13:17:11;;;;;;;0.10;0.10;;;;;;;22.05;61.99;102707.22;10553858;28;20040;-75
2022/08/06 13:22:51;;;;;;;0.00;0.00;;;;;;;21.96;67.98;102694.94;10539630;28;20494;-75
2022/08/06 13:28:12;;;;;;;0.00;0.00;;;;;;;21.64;59.25;102706.03;10536861;28;20044;-75
2022/08/06 13:33:24;;;;;;;;;;;;;;;22.50;63.16;102695.25;10545270;28;20040;-75
2022/08/06 13:38:30;;;;;;;0.00;0.00;;;;;;;23.32;61.50;102681.47;10563409;28;20015;-74
2022/08/06 13:43:42;;;;;;;0.00;0.00;;;;;;;23.79;61.97;102673.59;10537244;28;20042;-73
2022/08/06 13:48:59;;;;;;;0.05;0.03;;;;;;;23.66;59.11;102678.84;10554475;28;20043;-73
2022/08/06 13:54:03;;;;;;;0.00;0.00;;;;;;;22.98;48.67;102676.13;10554282;28;20369;-74
2022/08/06 13:59:18;;;;;;;0.00;0.00;;;;;;;23.31;51.91;102677.09;10538097;28;20047;-74
2022/08/06 14:04:22;;;;;;;0.00;0.00;;;;;;;22.60;56.27;102675.16;10538003;28;20061;-74
2022/08/06 14:09:28;;;;;;;0.08;0.08;;;;;;;21.99;58.81;102670.44;10537322;28;20078;-74
2022/08/06 14:14:50;;;;;;;0.20;0.20;;;;;;;21.37;65.76;102675.19;10521922;28;20040;-74
2022/08/06 14:19:52;;;;;;;0.57;0.40;;;;;;;21.95;70.51;102663.41;10530170;28;20052;-74
2022/08/06 14:25:13;;;;;;;0.03;0.03;;;;;;;21.49;68.98;102672.66;10548041;28;20110;-73
2022/08/06 14:30:16;;;;;;;0.00;0.00;;;;;;;21.34;70.24;102668.16;10529100;28;20044;-74
2022/08/06 14:35:31;;;;;;;0.10;0.05;;;;;;;21.72;67.39;102666.75;10547941;28;20048;-74
2022/08/06 14:46:10;;;;;;;0.10;0.00;;;;;;;21.29;67.31;102664.63;10552110;28;20036;-74
2022/08/06 14:51:12;;;;;;;0.00;0.00;;;;;;;21.24;70.39;102659.34;10558807;28;20044;-74
2022/08/06 14:56:23;;;;;;;0.15;0.15;;;;;;;21.58;66.08;102642.16;10521262;28;20115;-75
2022/08/06 15:02:00;;;;;;;0.17;0.00;;;;;;;21.55;67.79;102638.63;10510151;28;20044;-75
2022/08/06 15:07:02;;;;;;;0.15;0.08;;;;;;;21.53;58.68;102640.34;10512509;28;20044;-74
2022/08/06 15:12:04;;;;;;;0.00;0.00;;;;;;;21.40;64.81;102630.66;10545362;28;20040;-75
2022/08/06 15:17:06;;;;;;;0.00;0.00;;;;;;;21.12;64.54;102627.75;10546901;28;20052;-75
2022/08/06 15:23:21;;;;;;;0.00;0.00;;;;;;;21.00;69.64;102623.28;10543254;28;20036;-75
2022/08/06 15:28:22;;;;;;;0.20;0.20;;;;;;;20.77;64.43;102631.78;10526957;28;20051;-74
2022/08/06 15:33:46;;;;;;;0.10;0.10;;;;;;;21.01;68.33;102629.41;10537617;28;20085;-75
2022/08/06 15:38:48;;;;;;;0.00;0.00;;;;;;;21.03;70.03;102627.69;10553586;28;20047;-75
2022/08/06 15:43:50;;;;;;;0.00;0.00;;;;;;;21.22;69.10;102629.63;10531400;28;20044;-75
2022/08/06 15:48:53;;;;;;;0.10;0.10;;;;;;;21.33;68.79;102626.22;10550960;28;20043;-74
2022/08/06 15:53:56;;;;;;;0.00;0.00;;;;;;;21.19;66.06;102624.34;10531248;28;20067;-75
2022/08/06 15:58:59;;;;;;;0.00;0.00;;;;;;;21.36;64.40;102626.22;10533510;28;20556;-75
2022/08/06 16:04:01;;;;;;;0.00;0.00;;;;;;;21.45;72.86;102613.19;10530174;28;20048;-75
2022/08/06 16:09:03;;;;;;;0.00;0.00;;;;;;;21.42;65.36;102614.91;10531409;28;20060;-74
2022/08/06 16:14:09;;;;;;;0.00;0.00;;;;;;;21.21;59.93;102617.38;10556083;28;20032;-74
2022/08/06 16:19:12;;;;;;;0.10;0.10;;;;;;;21.33;56.71;102620.97;10556732;28;20044;-74
2022/08/06 16:24:22;;;;;;;0.10;0.10;;;;;;;21.12;59.15;102612.03;10539554;28;20059;-74
2022/08/06 16:29:30;;;;;;;0.00;0.00;;;;;;;21.19;70.39;102613.84;10557206;28;20044;-74
2022/08/06 16:34:35;;;;;;;0.00;0.00;;;;;;;20.97;72.71;102611.88;10536113;28;20429;-74
2022/08/06 16:39:37;;;;;;;0.50;0.13;;;;;;;20.75;74.11;102606.44;10529478;28;20121;-75
2022/08/06 16:44:57;;;;;;;0.00;0.00;;;;;;;20.69;74.87;102596.75;10532080;28;20036;-75
2022/08/06 16:50:10;;;;;;;0.10;0.00;;;;;;;20.79;75.96;102603.00;10535783;28;20043;-74
2022/08/06 16:55:27;;;;;;;0.05;0.05;;;;;;;20.99;78.40;102589.22;10536522;28;20051;-75
2022/08/06 17:00:34;;;;;;;0.38;0.20;;;;;;;21.62;73.91;102595.00;10553748;28;20489;-74
2022/08/06 17:05:56;;;;;;;0.00;0.00;;;;;;;21.77;73.02;102591.59;10534975;28;20090;-74
2022/08/06 17:11:00;;;;;;;0.00;0.00;;;;;;;21.32;71.00;102579.91;10533147;28;20086;-74
2022/08/06 17:16:03;;;;;;;0.10;0.10;;;;;;;21.11;68.74;102583.22;10550648;28;20453;-75
2022/08/06 17:21:12;;;;;;;;;;;;;;;21.49;75.37;102580.88;10551912;28;20044;-74
2022/08/06 17:26:14;;;;;;;0.00;0.00;;;;;;;21.66;70.56;102577.53;10553994;28;19920;-75
2022/08/06 17:31:35;;;;;;;0.17;0.17;;;;;;;21.70;72.95;102574.94;10560022;28;20101;-74
2022/08/06 17:36:57;;;;;;;0.00;0.00;;;;;;;21.40;64.86;102581.69;10537402;28;20062;-76
2022/08/06 17:42:23;;;;;;;0.00;0.00;;;;;;;21.23;63.00;102573.72;10555157;28;20036;-75
2022/08/06 17:47:30;;;;;;;0.00;0.00;;;;;;;21.22;64.06;102571.94;10526027;28;20105;-75
2022/08/06 17:52:51;;;;;;;0.00;0.00;;;;;;;20.91;61.64;102571.69;10534275;28;20035;-75
2022/08/06 17:57:53;;;;;;;0.00;0.00;;;;;;;20.95;66.21;102582.19;10557228;28;20051;-74
2022/08/06 18:03:15;;;;;;;0.00;0.00;;;;;;;20.61;68.56;102578.34;10535323;28;20045;-74
2022/08/06 18:08:36;;;;;;;0.00;0.00;;;;;;;20.54;71.21;102581.75;10484402;28;20398;-74
2022/08/06 18:13:38;;;;;;;0.05;0.05;;;;;;;20.45;70.30;102586.88;10498792;28;20079;-75
2022/08/06 18:18:55;;;;;;;0.35;0.05;;;;;;;20.27;72.61;102588.44;10496038;28;20044;-74
2022/08/06 18:23:57;;;;;;;0.20;0.20;;;;;;;20.24;74.25;102580.53;10511336;28;20052;-75
2022/08/06 18:29:03;;;;;;;0.00;0.00;;;;;;;20.28;77.29;102586.69;10537109;28;20487;-74
2022/08/06 18:34:07;;;;;;;0.00;0.00;;;;;;;20.02;87.46;102592.47;10498845;28;20036;-74
2022/08/06 18:39:19;;;;;;;0.00;0.00;;;;;;;19.75;92.52;102599.03;10512725;28;20448;-75
2022/08/06 18:44:24;;;;;;;0.00;0.00;;;;;;;19.57;98.09;102594.41;10514103;28;20051;-75
2022/08/06 18:49:27;;;;;;;0.00;0.00;;;;;;;19.28;99.07;102591.34;10477713;28;20052;-75
2022/08/06 18:54:52;;;;;;;0.00;0.00;;;;;;;19.07;100.00;102591.84;10521198;28;20071;-77
2022/08/06 18:59:59;;;;;;;0.10;0.10;;;;;;;18.89;100.00;102593.22;10505127;28;20045;-76
2022/08/06 19:05:00;;;;;;;0.00;0.00;;;;;;;18.28;100.00;102614.66;10536202;28;20079;-75
2022/08/06 19:10:03;;;;;;;0.10;0.10;;;;;;;18.15;100.00;102613.53;10566387;28;20054;-76
2022/08/06 19:16:11;;;;;;;0.00;0.00;;;;;;;18.05;100.00;102620.28;10568989;28;20039;-76
2022/08/06 19:21:13;;;;;;;0.00;0.00;;;;;;;17.89;100.00;102621.59;10563895;28;20072;-76
2022/08/06 19:26:17;;;;;;;0.10;0.05;;;;;;;17.43;100.00;102621.41;10540079;28;20067;-75
2022/08/06 19:31:20;;;;;;;0.20;0.17;;;;;;;17.17;100.00;102638.97;10542330;28;20048;-76
2022/08/06 19:36:24;;;;;;;0.00;0.00;;;;;;;16.98;100.00;102634.13;10542668;28;20438;-75
2022/08/06 19:41:33;;;;;;;0.00;0.00;;;;;;;16.69;100.00;102635.03;10559136;28;20537;-76
2022/08/06 19:46:55;;;;;;;0.00;0.00;;;;;;;16.32;100.00;102633.97;10529418;28;20037;-76
2022/08/06 19:51:58;;;;;;;0.00;0.00;;;;;;;16.11;100.00;102642.00;10529947;28;20051;-75
2022/08/06 19:57:05;;;;;;;0.00;0.00;;;;;;;15.82;100.00;102653.22;10526038;28;20085;-75
2022/08/06 20:02:10;;;;;;;0.60;0.20;;;;;;;15.74;100.00;102665.09;10542727;28;20055;-75
2022/08/06 20:07:17;;;;;;;0.17;0.10;;;;;;;15.50;100.00;102666.03;10525352;28;20399;-75
2022/08/06 20:12:27;;;;;;;0.32;0.10;;;;;;;15.18;100.00;102678.78;10544781;28;20052;-76
2022/08/06 20:17:34;;;;;;;0.20;0.10;;;;;;;14.63;100.00;102694.91;10527774;28;20051;-76
2022/08/06 20:22:50;;;;;;;0.32;0.20;;;;;;;15.03;100.00;102686.03;10544428;28;20056;-75
2022/08/06 20:27:56;;;;;;;0.00;0.00;;;;;;;14.79;100.00;102699.88;10542511;28;20043;-75
2022/08/06 20:33:24;;;;;;;0.15;0.08;;;;;;;14.59;100.00;102697.38;10543146;28;20484;-75
2022/08/06 20:38:27;;;;;;;0.00;0.00;;;;;;;14.52;100.00;102697.97;10543589;28;20051;-75
2022/08/06 20:43:41;;;;;;;0.15;0.10;;;;;;;14.36;100.00;102701.69;10523184;28;20075;-75
2022/08/06 20:49:03;;;;;;;0.10;0.10;;;;;;;14.37;100.00;102699.97;10547650;28;20058;-75
2022/08/06 20:54:10;;;;;;;0.10;0.10;;;;;;;14.34;100.00;102705.94;10584839;28;20102;-74
2022/08/06 20:59:19;;;;;;;0.75;0.43;;;;;;;13.96;100.00;102708.75;10583831;28;20144;-75
2022/08/06 21:04:20;;;;;;;0.00;0.00;;;;;;;14.01;100.00;102711.53;10565372;28;20046;-75
2022/08/06 21:09:42;;;;;;;0.88;0.30;;;;;;;13.89;100.00;102701.53;10569398;28;20043;-75
2022/08/06 21:21:48;;;;;;;0.30;0.10;;;;;;;13.31;100.00;102708.59;10542555;28;20052;-75
2022/08/06 21:26:50;;;;;;;0.65;0.30;;;;;;;13.29;100.00;102710.22;10543422;28;20050;-75
2022/08/06 21:31:53;;;;;;;0.20;0.20;;;;;;;13.36;100.00;102702.75;10532675;28;20048;-75
2022/08/06 21:36:59;;;;;;;0.32;0.10;;;;;;;13.43;100.00;102700.50;10515618;28;20410;-75
2022/08/06 21:42:01;;;;;;;0.10;0.10;;;;;;;13.36;100.00;102702.75;10514018;28;20048;-75
2022/08/06 21:47:11;;;;;;;0.57;0.20;;;;;;;13.21;100.00;102698.69;10549055;28;20048;-75
2022/08/06 21:52:18;;;;;;;0.10;0.00;;;;;;;13.31;100.00;102700.81;10530560;28;20052;-75
2022/08/06 21:57:28;;;;;;;0.03;0.03;;;;;;;13.19;100.00;102697.72;10530439;28;20044;-74
2022/08/06 22:02:49;;;;;;;0.30;0.22;;;;;;;13.07;100.00;102695.47;10529814;28;20142;-75
2022/08/06 22:07:57;;;;;;;0.00;0.00;;;;;;;13.15;100.00;102695.78;10548591;28;20032;-75
2022/08/06 22:13:08;;;;;;;0.35;0.20;;;;;;;12.79;100.00;102698.50;10548867;28;20044;-74
2022/08/06 22:18:16;;;;;;;0.10;0.10;;;;;;;12.99;100.00;102697.69;10548196;28;20048;-75
2022/08/06 22:23:29;;;;;;;0.10;0.10;;;;;;;12.76;100.00;102703.56;10530136;28;20429;-75
2022/08/06 22:28:34;;;;;;;0.10;0.10;;;;;;;12.72;100.00;102693.88;10529295;28;20094;-75
2022/08/06 22:33:43;;;;;;;1.17;0.52;;;;;;;12.70;100.00;102689.50;10530688;28;20468;-74
2022/08/06 22:38:59;;;;;;;0.65;0.20;;;;;;;12.62;100.00;102679.63;10546995;28;20074;-75
2022/08/06 22:44:01;;;;;;;0.00;0.00;;;;;;;12.31;100.00;102678.22;10547466;28;20036;-75
2022/08/06 22:49:03;;;;;;;0.10;0.10;;;;;;;12.30;100.00;102667.00;10527666;28;20052;-75
2022/08/06 22:54:13;;;;;;;1.35;0.13;;;;;;;12.45;100.00;102671.13;10512400;28;20100;-75
2022/08/06 22:59:35;;;;;;;0.40;0.20;;;;;;;12.25;100.00;102673.63;10526936;28;20048;-75
2022/08/06 23:04:56;;;;;;;0.47;0.47;;;;;;;12.26;100.00;102674.53;10513501;28;20036;-75
2022/08/06 23:10:05;;;;;;;0.10;0.10;;;;;;;12.18;100.00;102676.72;10544652;28;20052;-75
2022/08/06 23:15:11;;;;;;;0.03;0.03;;;;;;;11.93;100.00;102682.38;10525776;28;20483;-75
2022/08/06 23:20:32;;;;;;;0.30;0.20;;;;;;;11.80;100.00;102680.91;10526067;28;20044;-75
2022/08/06 23:25:36;;;;;;;0.47;0.40;;;;;;;11.78;100.00;102679.94;10525854;28;20101;-75
2022/08/06 23:30:57;;;;;;;0.75;0.52;;;;;;;11.36;100.00;102668.41;10511773;28;20047;-75
2022/08/06 23:36:00;;;;;;;0.10;0.10;;;;;;;11.13;100.00;102676.69;10544064;28;20075;-74
2022/08/06 23:41:04;;;;;;;0.10;0.10;;;;;;;11.07;100.00;102680.69;10525201;28;20122;-75
2022/08/06 23:46:21;;;;;;;0.00;0.00;;;;;;;11.27;100.00;102673.13;10543542;28;20040;-74
2022/08/06 23:51:28;;;;;;;0.00;0.00;;;;;;;10.95;100.00;102683.50;10543144;28;20040;-74
2022/08/06 23:56:53;;;;;;;0.25;0.20;;;;;;;10.88;100.00;102683.13;10543278;28;20090;-75
